Kezdőlap
METAR-TAF:

METAR-TAF

Repülőterek :

Kuvaitváros, Kuvait

földrajzi szélesség: 29-13N, földrajzi hosszúság: 047-59E, magasság: 55 m

Jelenlegi meteorológiai megfigyelések

A jelentés 38 perccel ezelõtt készült, 19:00 UTC
Szélcsend
Hőmérséklet 33°C
Páratartalom 21%
Légköri nyomás 1007 hPa
Látótávolság 10 km, vagy több
felhőtlen 1500 m magasságban, és nincs gomolyfelhõ

METAR: OKBK 271900Z 00000KT CAVOK 33/08 Q1007 NOSIG

Idő: 22:38 (19:38 UTC)

Előrejelzés

A jelentés 16 órával és 28 perccel ezelõtt készült, 03:10 UTC
Az előrejelzés 27-én 03 óra UTC és 28-én 06 óra UTC között érvényes
Északi szél 12 kt
Látótávolság: 7000 m
27-én 03 óra UTC és 27-én 09 óra UTC között ideiglenes
Különbözõ irányokból fújó szél 3 kt
Látótávolság: 3500 m
Száraz légköri homály

TAF: OKBK 270310Z 2703/2806 35012KT 7000 NSC TEMPO 2703/2709 VRB03KT 3500 HZ

Meteorológiai megfigyelések és előrejelzések több, mint 4000 repülőtéren (METAR és TAF jelentéseket).

A térképen piros és sárga pontok jelzik az elérhető meteorológiai állomásokat.

Mozgassa az egeret a pont fölött, hogy megjelenjen az állomás neve.

Azután kattintson az időjárási megfigyelések és előrejelzések megtekintéséhez.

A térkép megváltoztatása: kattintson a fekete keresztel jelölt zöld gombra ráközelítéshez, a vonallal jelölt zöld gombra távolításhoz, vagy a zöld nyilakra a szomszédos térképek eléréséhez.


METAR-TAF: